createdAt,value
2023-01-02T00:01:04.001Z,23.2
2023-01-02T00:02:03.805Z,23.2
2023-01-02T00:03:03.978Z,23.2
2023-01-02T00:04:03.833Z,23.2
2023-01-02T00:05:03.851Z,23.2
2023-01-02T00:06:03.833Z,23.2
2023-01-02T00:07:03.876Z,23.2
2023-01-02T00:08:03.806Z,23.2
2023-01-02T00:09:03.833Z,23.2
2023-01-02T00:10:03.800Z,23.1
2023-01-02T00:11:03.856Z,23.1
2023-01-02T00:12:03.821Z,23.1
2023-01-02T00:13:03.879Z,23.1
2023-01-02T00:14:03.973Z,23.1
2023-01-02T00:15:03.840Z,23.1
2023-01-02T00:16:03.814Z,23.1
2023-01-02T00:17:03.837Z,23.1
2023-01-02T00:18:03.810Z,23.1
2023-01-02T00:19:03.885Z,23.1
2023-01-02T00:20:03.809Z,23.1
2023-01-02T00:21:03.835Z,23.1
2023-01-02T00:22:03.822Z,23.0
2023-01-02T00:23:03.835Z,23.0
2023-01-02T00:24:03.872Z,23.0
2023-01-02T00:25:03.887Z,23.0
2023-01-02T00:26:03.823Z,23.0
2023-01-02T00:27:03.840Z,23.0
2023-01-02T00:28:03.812Z,23.0
2023-01-02T00:29:03.860Z,23.0
2023-01-02T00:30:03.811Z,22.9
2023-01-02T00:31:03.943Z,22.9
2023-01-02T00:32:03.818Z,22.9
2023-01-02T00:33:03.831Z,22.9
2023-01-02T00:34:03.816Z,22.9
2023-01-02T00:35:03.897Z,22.9
2023-01-02T00:36:03.813Z,22.9
2023-01-02T00:37:03.871Z,22.9
2023-01-02T00:38:03.815Z,22.8
2023-01-02T00:39:03.827Z,22.8
2023-01-02T00:40:03.820Z,22.8
2023-01-02T00:41:03.852Z,22.8
2023-01-02T00:42:03.825Z,22.8
2023-01-02T00:43:03.890Z,22.8
2023-01-02T00:44:03.814Z,22.8
2023-01-02T00:45:03.898Z,22.8
2023-01-02T00:46:10.904Z,22.8
2023-01-02T00:47:03.861Z,22.7
2023-01-02T00:48:03.820Z,22.7
2023-01-02T00:49:03.911Z,22.7
2023-01-02T00:50:03.822Z,22.7
2023-01-02T00:51:03.865Z,22.7
2023-01-02T00:52:03.820Z,22.7
2023-01-02T00:53:03.864Z,22.7
2023-01-02T00:54:03.837Z,22.7
2023-01-02T00:55:03.891Z,22.7
2023-01-02T00:56:03.807Z,22.7
2023-01-02T00:57:03.867Z,22.7
2023-01-02T00:58:03.836Z,22.7
2023-01-02T00:59:03.876Z,22.7
2023-01-02T01:00:03.834Z,22.6
2023-01-02T01:01:03.972Z,22.6
2023-01-02T01:02:03.952Z,22.6
2023-01-02T01:03:03.961Z,22.6
2023-01-02T01:04:03.862Z,22.6
2023-01-02T01:05:03.842Z,22.6
2023-01-02T01:06:03.820Z,22.6
2023-01-02T01:07:03.935Z,22.6
2023-01-02T01:08:03.899Z,22.6
2023-01-02T01:09:03.849Z,22.6
2023-01-02T01:10:50.748Z,22.5
2023-01-02T01:11:03.837Z,22.4
2023-01-02T01:12:05.084Z,22.5
2023-01-02T01:13:04.057Z,22.5
2023-01-02T01:14:03.968Z,22.5
2023-01-02T01:15:04.032Z,22.5
2023-01-02T01:16:03.859Z,22.5
2023-01-02T01:17:03.835Z,22.5
2023-01-02T01:18:03.878Z,22.5
2023-01-02T01:19:03.914Z,22.5
2023-01-02T01:20:03.827Z,22.4
2023-01-02T01:21:03.853Z,22.4
2023-01-02T01:22:04.289Z,22.4
2023-01-02T01:23:04.331Z,22.4
2023-01-02T01:24:03.825Z,22.4
2023-01-02T01:25:03.976Z,22.4
2023-01-02T01:26:04.230Z,22.4
2023-01-02T01:27:04.956Z,22.4
2023-01-02T01:28:03.854Z,22.4
2023-01-02T01:29:03.902Z,22.4
2023-01-02T01:30:03.827Z,22.4
2023-01-02T01:31:03.867Z,22.4
2023-01-02T01:32:03.834Z,22.4
2023-01-02T01:33:04.300Z,22.4
2023-01-02T01:34:03.909Z,22.3
2023-01-02T01:35:03.855Z,22.3
2023-01-02T01:36:03.850Z,22.3
2023-01-02T01:37:03.857Z,22.3
2023-01-02T01:38:03.981Z,22.3
2023-01-02T01:39:03.850Z,22.3
2023-01-02T01:40:03.878Z,22.3
2023-01-02T01:41:03.839Z,22.3
2023-01-02T01:42:03.852Z,22.3
2023-01-02T01:43:03.843Z,22.3
2023-01-02T01:44:03.864Z,22.3
2023-01-02T01:45:03.851Z,22.3
2023-01-02T01:46:03.982Z,22.3
2023-01-02T01:47:03.821Z,22.2
2023-01-02T01:48:03.857Z,22.2
2023-01-02T01:49:03.847Z,22.2
2023-01-02T01:50:05.960Z,22.2
2023-01-02T01:51:03.875Z,22.2
2023-01-02T01:52:03.888Z,22.2
2023-01-02T01:53:03.875Z,22.2
2023-01-02T01:54:03.868Z,22.2
2023-01-02T01:55:03.829Z,22.2
2023-01-02T01:56:03.885Z,22.2
2023-01-02T01:57:03.838Z,22.2
2023-01-02T01:58:03.895Z,22.1
2023-01-02T01:59:03.834Z,22.1
2023-01-02T02:00:03.868Z,22.2
2023-01-02T02:01:03.934Z,22.2
2023-01-02T02:02:04.019Z,22.2
2023-01-02T02:03:03.885Z,22.2
2023-01-02T02:04:03.898Z,22.2
2023-01-02T02:05:03.847Z,22.2
2023-01-02T02:06:03.874Z,22.2
2023-01-02T02:07:03.849Z,22.2
2023-01-02T02:08:03.861Z,22.1
2023-01-02T02:09:03.868Z,22.2
2023-01-02T02:10:03.875Z,22.2
2023-01-02T02:11:03.887Z,22.2
2023-01-02T02:12:03.836Z,22.1
2023-01-02T02:13:03.870Z,22.1
2023-01-02T02:14:03.843Z,22.1
2023-01-02T02:15:03.869Z,22.1
2023-01-02T02:16:03.961Z,22.1
2023-01-02T02:17:03.866Z,22.1
2023-01-02T02:18:03.886Z,22.1
2023-01-02T02:20:16.843Z,22.1
2023-01-02T02:20:20.801Z,21.8
2023-01-02T02:21:03.893Z,21.9
2023-01-02T02:22:03.873Z,22.0
2023-01-02T02:23:03.872Z,22.0
2023-01-02T02:24:03.841Z,22.0
2023-01-02T02:25:03.870Z,22.0
2023-01-02T02:26:03.855Z,22.0
2023-01-02T02:27:03.891Z,22.0
2023-01-02T02:28:03.919Z,21.9
2023-01-02T02:29:03.886Z,21.9
2023-01-02T02:30:03.848Z,21.9
2023-01-02T02:31:03.890Z,21.9
2023-01-02T02:32:03.898Z,21.9
2023-01-02T02:33:10.628Z,21.8
2023-01-02T02:34:04.533Z,21.9
2023-01-02T02:35:04.340Z,21.9
2023-01-02T02:36:04.358Z,21.9
2023-01-02T02:37:04.333Z,21.9
2023-01-02T02:38:04.299Z,21.9
2023-01-02T02:39:04.392Z,21.9
2023-01-02T02:40:04.375Z,21.8
2023-01-02T02:41:04.360Z,21.8
2023-01-02T02:42:04.308Z,21.8
2023-01-02T02:43:04.438Z,21.8
2023-01-02T02:44:04.351Z,21.8
2023-01-02T02:45:04.878Z,21.8
2023-01-02T02:46:04.389Z,21.8
2023-01-02T02:47:04.371Z,21.8
2023-01-02T02:48:04.466Z,21.8
2023-01-02T02:49:11.011Z,21.7
2023-01-02T02:50:03.737Z,21.8
2023-01-02T02:51:03.770Z,21.8
2023-01-02T02:52:03.757Z,21.8
2023-01-02T02:53:03.739Z,21.8
2023-01-02T02:54:03.766Z,21.8
2023-01-02T02:55:03.729Z,21.7
2023-01-02T02:56:03.759Z,21.7
2023-01-02T02:57:03.765Z,21.7
2023-01-02T02:58:10.543Z,21.6
2023-01-02T02:59:04.185Z,21.7
2023-01-02T03:00:04.211Z,21.7
2023-01-02T03:01:04.227Z,21.7
2023-01-02T03:02:04.347Z,21.7
2023-01-02T03:03:04.294Z,21.7
2023-01-02T03:04:04.198Z,21.7
2023-01-02T03:05:04.199Z,21.7
2023-01-02T03:06:04.211Z,21.7
2023-01-02T03:07:04.181Z,21.6
2023-01-02T03:08:04.257Z,21.6
2023-01-02T03:09:04.163Z,21.6
2023-01-02T03:10:04.201Z,21.6
2023-01-02T03:11:04.181Z,21.6
2023-01-02T03:12:04.205Z,21.6
2023-01-02T03:13:04.177Z,21.6
2023-01-02T03:14:04.223Z,21.6
2023-01-02T03:15:04.195Z,21.6
2023-01-02T03:16:04.209Z,21.6
2023-01-02T03:17:04.266Z,21.5
2023-01-02T03:18:04.241Z,21.5
2023-01-02T03:19:04.181Z,21.5
2023-01-02T03:20:04.311Z,21.5
2023-01-02T03:21:04.267Z,21.5
2023-01-02T03:22:04.202Z,21.5
2023-01-02T03:23:04.184Z,21.5
2023-01-02T03:24:04.515Z,21.5
2023-01-02T03:25:04.177Z,21.4
2023-01-02T03:26:04.208Z,21.4
2023-01-02T03:27:04.200Z,21.4
2023-01-02T03:28:04.192Z,21.4
2023-01-02T03:29:04.205Z,21.4
2023-01-02T03:30:04.178Z,21.4
2023-01-02T03:31:04.286Z,21.4
2023-01-02T03:32:04.218Z,21.4
2023-01-02T03:33:04.210Z,21.4
2023-01-02T03:34:04.188Z,21.4
2023-01-02T03:35:04.204Z,21.4
2023-01-02T03:36:04.197Z,21.4
2023-01-02T03:37:04.204Z,21.3
2023-01-02T03:38:04.230Z,21.3
2023-01-02T03:39:04.377Z,21.3
2023-01-02T03:40:04.181Z,21.3
2023-01-02T03:41:04.230Z,21.3
2023-01-02T03:42:04.198Z,21.3
2023-01-02T03:43:04.208Z,21.3
2023-01-02T03:44:04.237Z,21.3
2023-01-02T03:45:04.218Z,21.2
2023-01-02T03:46:04.201Z,21.2
2023-01-02T03:47:04.214Z,21.2
2023-01-02T03:48:04.194Z,21.2
2023-01-02T03:49:04.221Z,21.2
2023-01-02T03:50:04.232Z,21.2
2023-01-02T03:51:04.219Z,21.2
2023-01-02T03:52:04.299Z,21.2
2023-01-02T03:53:04.337Z,21.2
2023-01-02T03:54:04.303Z,21.2
2023-01-02T03:55:04.330Z,21.2
2023-01-02T03:56:04.389Z,21.2
2023-01-02T03:57:04.341Z,21.2
2023-01-02T03:58:04.193Z,21.1
2023-01-02T03:59:04.205Z,21.1
2023-01-02T04:00:04.193Z,21.1
2023-01-02T04:01:04.286Z,21.1
2023-01-02T04:02:11.109Z,21.0
2023-01-02T04:03:04.709Z,21.1
2023-01-02T04:04:06.379Z,21.1
2023-01-02T04:05:04.646Z,21.1
2023-01-02T04:06:04.660Z,21.1
2023-01-02T04:07:11.382Z,21.0
2023-01-02T04:08:04.126Z,21.1
2023-01-02T04:09:04.096Z,21.1
2023-01-02T04:10:10.878Z,21.0
2023-01-02T04:11:11.305Z,21.0
2023-01-02T04:12:10.766Z,21.0
2023-01-02T04:13:04.435Z,21.0
2023-01-02T04:14:11.142Z,21.0
2023-01-02T04:15:03.891Z,21.0
2023-01-02T04:16:03.900Z,21.0
2023-01-02T04:17:03.887Z,21.0
2023-01-02T04:18:03.913Z,21.0
2023-01-02T04:19:03.891Z,21.0
2023-01-02T04:20:03.892Z,21.0
2023-01-02T04:21:03.906Z,21.0
2023-01-02T04:22:03.924Z,21.0
2023-01-02T04:23:03.875Z,21.0
2023-01-02T04:24:03.893Z,21.0
2023-01-02T04:25:03.892Z,21.0
2023-01-02T04:26:03.881Z,20.9
2023-01-02T04:27:03.927Z,20.9
2023-01-02T04:28:03.851Z,20.9
2023-01-02T04:29:03.906Z,20.9
2023-01-02T04:30:03.893Z,20.9
2023-01-02T04:31:03.943Z,20.9
2023-01-02T04:32:03.879Z,20.9
2023-01-02T04:33:03.890Z,20.9
2023-01-02T04:34:03.855Z,20.9
2023-01-02T04:35:03.907Z,20.9
2023-01-02T04:36:03.899Z,20.9
2023-01-02T04:37:03.903Z,20.9
2023-01-02T04:38:03.879Z,20.9
2023-01-02T04:39:03.903Z,20.9
2023-01-02T04:40:03.874Z,20.9
2023-01-02T04:41:03.913Z,20.9
2023-01-02T04:42:03.918Z,20.9
2023-01-02T04:43:03.931Z,20.9
2023-01-02T04:44:03.858Z,20.9
2023-01-02T04:45:03.889Z,20.9
2023-01-02T04:46:03.885Z,20.9
2023-01-02T04:47:03.890Z,20.9
2023-01-02T04:48:03.907Z,20.9
2023-01-02T04:49:03.899Z,20.8
2023-01-02T04:50:04.390Z,20.8
2023-01-02T04:51:03.887Z,20.8
2023-01-02T04:52:03.923Z,20.8
2023-01-02T04:53:03.935Z,20.8
2023-01-02T04:54:03.907Z,20.9
2023-01-02T04:55:03.900Z,20.9
2023-01-02T04:56:03.864Z,21.0
2023-01-02T04:57:03.885Z,21.1
2023-01-02T04:58:03.881Z,21.1
2023-01-02T04:59:03.913Z,21.2
2023-01-02T05:00:03.898Z,21.2
2023-01-02T05:01:03.904Z,21.2
2023-01-02T05:02:03.980Z,21.3
2023-01-02T05:03:03.991Z,21.3
2023-01-02T05:04:03.869Z,21.3
2023-01-02T05:05:03.889Z,21.3
2023-01-02T05:06:03.902Z,21.4
2023-01-02T05:07:03.891Z,21.4
2023-01-02T05:08:03.874Z,21.4
2023-01-02T05:09:03.911Z,21.5
2023-01-02T05:10:03.873Z,21.5
2023-01-02T05:11:03.957Z,21.6
2023-01-02T05:12:03.926Z,21.6
2023-01-02T05:13:03.897Z,21.7
2023-01-02T05:14:07.216Z,21.8
2023-01-02T05:15:04.003Z,21.8
2023-01-02T05:17:30.275Z,21.9
2023-01-02T05:17:34.294Z,21.6
2023-01-02T05:18:03.880Z,21.8
2023-01-02T05:19:03.949Z,21.9
2023-01-02T05:20:03.877Z,22.0
2023-01-02T05:21:03.899Z,22.1
2023-01-02T05:22:03.873Z,22.1
2023-01-02T05:23:03.955Z,22.2
2023-01-02T05:24:03.885Z,22.2
2023-01-02T05:25:04.969Z,22.2
2023-01-02T05:26:03.866Z,22.3
2023-01-02T05:27:04.022Z,22.3
2023-01-02T05:28:03.986Z,22.3
2023-01-02T05:29:03.928Z,22.4
2023-01-02T05:30:03.878Z,22.4
2023-01-02T05:31:03.925Z,22.4
2023-01-02T05:32:03.886Z,22.5
2023-01-02T05:33:03.915Z,22.5
2023-01-02T05:34:03.875Z,22.5
2023-01-02T05:35:03.973Z,22.6
2023-01-02T05:36:03.878Z,22.6
2023-01-02T05:37:03.917Z,22.6
2023-01-02T05:38:03.885Z,22.7
2023-01-02T05:39:04.973Z,22.7
2023-01-02T05:40:03.877Z,22.7
2023-01-02T05:41:03.940Z,22.8
2023-01-02T05:42:04.430Z,22.8
2023-01-02T05:43:03.920Z,22.8
2023-01-02T05:44:03.887Z,22.9
2023-01-02T05:45:03.912Z,22.9
2023-01-02T05:46:03.961Z,22.9
2023-01-02T05:47:03.952Z,23.0
2023-01-02T05:48:03.889Z,23.0
2023-01-02T05:49:03.914Z,23.0
2023-01-02T05:50:03.894Z,23.0
2023-01-02T05:51:03.917Z,23.1
2023-01-02T05:52:03.895Z,23.1
2023-01-02T05:53:03.944Z,23.1
2023-01-02T05:54:03.900Z,23.1
2023-01-02T05:55:03.908Z,23.1
2023-01-02T05:56:03.913Z,23.2
2023-01-02T05:57:03.915Z,23.2
2023-01-02T05:58:03.880Z,23.2
2023-01-02T05:59:03.951Z,23.2
2023-01-02T06:01:04.054Z,23.2
2023-01-02T06:02:04.212Z,23.2
2023-01-02T06:03:04.146Z,23.2
2023-01-02T06:04:04.087Z,23.2
2023-01-02T06:05:04.080Z,23.3
2023-01-02T06:06:04.038Z,23.3
2023-01-02T06:07:04.045Z,23.3
2023-01-02T06:08:04.060Z,23.3
2023-01-02T06:09:04.033Z,23.3
2023-01-02T06:10:04.120Z,23.3
2023-01-02T06:11:04.051Z,23.3
2023-01-02T06:12:04.080Z,23.3
2023-01-02T06:13:04.045Z,23.4
2023-01-02T06:14:04.064Z,23.4
2023-01-02T06:15:04.050Z,23.4
2023-01-02T06:16:04.155Z,23.4
2023-01-02T06:17:04.043Z,23.4
2023-01-02T06:18:04.079Z,23.4
2023-01-02T06:19:04.029Z,23.5
2023-01-02T06:20:04.059Z,23.5
2023-01-02T06:21:04.055Z,23.5
2023-01-02T06:22:04.097Z,23.5
2023-01-02T06:23:04.044Z,23.5
2023-01-02T06:24:04.099Z,23.6
2023-01-02T06:25:04.062Z,23.6
2023-01-02T06:26:04.071Z,23.6
2023-01-02T06:27:04.043Z,23.6
2023-01-02T06:28:04.133Z,23.7
2023-01-02T06:29:04.038Z,23.7
2023-01-02T06:30:04.081Z,23.7
2023-01-02T06:31:04.036Z,23.7
2023-01-02T06:32:04.161Z,23.7
2023-01-02T06:33:04.035Z,23.7
2023-01-02T06:34:04.111Z,23.7
2023-01-02T06:35:04.033Z,23.8
2023-01-02T06:36:04.071Z,23.8
2023-01-02T06:37:09.394Z,23.8
2023-01-02T06:38:04.094Z,23.8
2023-01-02T06:39:04.056Z,23.8
2023-01-02T06:40:10.831Z,23.7
2023-01-02T06:41:04.597Z,23.8
2023-01-02T06:42:04.538Z,23.8
2023-01-02T06:43:04.630Z,23.8
2023-01-02T06:44:04.558Z,23.8
2023-01-02T06:45:11.401Z,23.8
2023-01-02T06:46:04.079Z,23.8
2023-01-02T06:47:03.994Z,23.8
2023-01-02T06:48:04.033Z,23.8
2023-01-02T06:49:04.028Z,23.8
2023-01-02T06:50:04.022Z,23.8
2023-01-02T06:51:11.027Z,23.8
2023-01-02T06:52:04.634Z,23.8
2023-01-02T06:53:05.105Z,23.8
2023-01-02T06:54:04.457Z,23.8
2023-01-02T06:55:04.470Z,23.8
2023-01-02T06:56:04.469Z,23.8
2023-01-02T06:57:04.515Z,23.8
2023-01-02T06:58:14.631Z,23.7
2023-01-02T06:59:10.753Z,23.7
2023-01-02T07:00:04.303Z,23.8
2023-01-02T07:01:04.314Z,23.8
2023-01-02T07:02:04.469Z,23.8
2023-01-02T07:03:04.351Z,23.8
2023-01-02T07:04:04.328Z,23.8
2023-01-02T07:05:04.309Z,23.8
2023-01-02T07:06:04.320Z,23.9
2023-01-02T07:07:04.300Z,23.9
2023-01-02T07:08:11.042Z,23.8
2023-01-02T07:09:03.785Z,23.9
2023-01-02T07:10:03.752Z,23.9
2023-01-02T07:11:03.803Z,23.9
2023-01-02T07:12:03.755Z,24.0
2023-01-02T07:13:03.789Z,24.0
2023-01-02T07:14:03.781Z,24.0
2023-01-02T07:15:03.785Z,24.0
2023-01-02T07:16:03.863Z,24.0
2023-01-02T07:17:03.801Z,24.0
2023-01-02T07:18:03.776Z,24.0
2023-01-02T07:19:03.803Z,24.0
2023-01-02T07:20:03.788Z,24.1
2023-01-02T07:21:03.796Z,24.1
2023-01-02T07:22:03.774Z,24.1
2023-01-02T07:23:03.817Z,24.1
2023-01-02T07:24:03.765Z,24.1
2023-01-02T07:25:03.789Z,24.1
2023-01-02T07:26:03.795Z,24.1
2023-01-02T07:27:03.798Z,24.1
2023-01-02T07:28:03.775Z,24.1
2023-01-02T07:29:03.785Z,24.1
2023-01-02T07:30:03.818Z,24.0
2023-01-02T07:31:03.792Z,24.0
2023-01-02T07:32:03.872Z,24.0
2023-01-02T07:33:03.805Z,24.0
2023-01-02T07:34:03.769Z,24.0
2023-01-02T07:35:03.782Z,24.0
2023-01-02T07:36:03.772Z,23.9
2023-01-02T07:37:03.796Z,23.9
2023-01-02T07:38:03.799Z,23.9
2023-01-02T07:39:03.798Z,23.9
2023-01-02T07:40:03.769Z,23.9
2023-01-02T07:41:03.803Z,23.8
2023-01-02T07:42:03.771Z,23.8
2023-01-02T07:43:03.806Z,23.8
2023-01-02T07:44:03.794Z,23.8
2023-01-02T07:45:03.820Z,23.8
2023-01-02T07:46:03.826Z,23.8
2023-01-02T07:47:03.792Z,23.8
2023-01-02T07:48:03.831Z,23.8
2023-01-02T07:49:03.790Z,23.9
2023-01-02T07:50:03.946Z,23.9
2023-01-02T07:51:03.994Z,23.9
2023-01-02T07:52:03.802Z,24.0
2023-01-02T07:53:03.912Z,24.0
2023-01-02T07:54:03.910Z,24.0
2023-01-02T07:55:03.922Z,24.0
2023-01-02T07:56:03.930Z,24.1
2023-01-02T07:57:03.890Z,24.1
2023-01-02T07:58:03.879Z,24.1
2023-01-02T07:59:03.910Z,24.1
2023-01-02T08:00:03.788Z,24.1
2023-01-02T08:01:05.810Z,24.1
2023-01-02T08:02:04.086Z,24.2
2023-01-02T08:03:03.797Z,24.2
2023-01-02T08:04:03.844Z,24.2
2023-01-02T08:05:03.815Z,24.2
2023-01-02T08:06:03.774Z,24.2
2023-01-02T08:07:03.802Z,24.2
2023-01-02T08:08:03.824Z,24.2
2023-01-02T08:09:03.816Z,24.2
2023-01-02T08:10:03.786Z,24.2
2023-01-02T08:11:03.834Z,24.2
2023-01-02T08:12:03.795Z,24.2
2023-01-02T08:13:03.815Z,24.2
2023-01-02T08:14:03.830Z,24.2
2023-01-02T08:15:03.815Z,24.2
2023-01-02T08:16:03.805Z,24.2
2023-01-02T08:17:04.018Z,24.2
2023-01-02T08:18:30.251Z,24.0
2023-01-02T08:19:03.974Z,24.1
2023-01-02T08:20:07.944Z,24.1
2023-01-02T08:21:03.980Z,24.0
2023-01-02T08:22:03.992Z,24.0
2023-01-02T08:23:03.947Z,24.0
2023-01-02T08:24:04.000Z,24.0
2023-01-02T08:25:04.002Z,24.0
2023-01-02T08:26:03.993Z,24.0
2023-01-02T08:27:03.964Z,23.9
2023-01-02T08:28:03.977Z,23.9
2023-01-02T08:29:03.957Z,23.9
2023-01-02T08:30:04.226Z,23.9
2023-01-02T08:31:04.013Z,23.9
2023-01-02T08:32:03.988Z,23.9
2023-01-02T08:33:03.951Z,23.9
2023-01-02T08:34:03.980Z,23.9
2023-01-02T08:35:03.950Z,23.9
2023-01-02T08:36:03.982Z,24.0
2023-01-02T08:37:04.052Z,24.0
2023-01-02T08:38:03.989Z,24.0
2023-01-02T08:39:03.960Z,24.1
2023-01-02T08:40:03.985Z,24.1
2023-01-02T08:41:03.952Z,24.1
2023-01-02T08:42:03.995Z,24.1
2023-01-02T08:43:03.978Z,24.2
2023-01-02T08:44:03.987Z,24.2
2023-01-02T08:45:03.955Z,24.2
2023-01-02T08:46:04.160Z,24.2
2023-01-02T08:47:03.957Z,24.2
2023-01-02T08:48:21.017Z,24.2
2023-01-02T08:49:03.982Z,24.2
2023-01-02T08:50:03.980Z,24.3
2023-01-02T08:51:03.961Z,24.3
2023-01-02T08:52:03.976Z,24.3
2023-01-02T08:53:05.672Z,24.3
2023-01-02T08:54:03.990Z,24.3
2023-01-02T08:55:03.987Z,24.3
2023-01-02T08:56:03.996Z,24.3
2023-01-02T08:57:03.961Z,24.3
2023-01-02T08:58:03.995Z,24.3
2023-01-02T08:59:04.041Z,24.3
2023-01-02T09:00:04.031Z,24.3
2023-01-02T09:01:04.094Z,24.3
2023-01-02T09:02:04.098Z,24.3
2023-01-02T09:03:04.199Z,24.2
2023-01-02T09:04:11.221Z,24.2
2023-01-02T09:05:03.956Z,24.2
2023-01-02T09:06:03.991Z,24.2
2023-01-02T09:07:03.995Z,24.2
2023-01-02T09:08:04.000Z,24.1
2023-01-02T09:09:10.815Z,24.1
2023-01-02T09:10:03.999Z,24.1
2023-01-02T09:11:04.002Z,24.1
2023-01-02T09:12:03.991Z,24.1
2023-01-02T09:13:04.014Z,24.2
2023-01-02T09:14:04.044Z,24.2
2023-01-02T09:15:03.959Z,24.2
2023-01-02T09:16:04.045Z,24.2
2023-01-02T09:17:03.971Z,24.2
2023-01-02T09:19:10.013Z,24.3
2023-01-02T09:19:14.034Z,24.0
2023-01-02T09:20:04.016Z,24.2
2023-01-02T09:21:03.989Z,24.2
2023-01-02T09:22:04.034Z,24.3
2023-01-02T09:23:03.999Z,24.3
2023-01-02T09:24:03.988Z,24.3
2023-01-02T09:25:04.011Z,24.3
2023-01-02T09:26:04.009Z,24.4
2023-01-02T09:27:04.018Z,24.4
2023-01-02T09:28:04.047Z,24.4
2023-01-02T09:29:04.014Z,24.5
2023-01-02T09:30:04.030Z,24.5
2023-01-02T09:31:08.560Z,24.5
2023-01-02T09:32:03.996Z,24.5
2023-01-02T09:33:04.002Z,24.5
2023-01-02T09:34:03.992Z,24.5
2023-01-02T09:35:04.035Z,24.6
2023-01-02T09:36:03.990Z,24.6
2023-01-02T09:37:03.979Z,24.6
2023-01-02T09:38:04.059Z,24.6
2023-01-02T09:39:04.019Z,24.6
2023-01-02T09:40:04.024Z,24.6
2023-01-02T09:41:03.967Z,24.6
2023-01-02T09:42:04.007Z,24.6
2023-01-02T09:43:03.987Z,24.6
2023-01-02T09:44:03.997Z,24.7
2023-01-02T09:45:08.485Z,24.7
2023-01-02T09:46:04.047Z,24.7
2023-01-02T09:47:03.987Z,24.7
2023-01-02T09:48:03.993Z,24.7
2023-01-02T09:49:03.995Z,24.7
2023-01-02T09:50:04.069Z,24.7
2023-01-02T09:51:07.609Z,24.7
2023-01-02T09:52:04.050Z,24.7
2023-01-02T09:53:03.970Z,24.7
2023-01-02T09:54:03.992Z,24.7
2023-01-02T09:55:04.009Z,24.7
2023-01-02T09:56:04.002Z,24.7
2023-01-02T09:57:04.053Z,24.7
2023-01-02T09:58:04.015Z,24.7
2023-01-02T09:59:04.021Z,24.7
2023-01-02T10:00:04.029Z,24.7
2023-01-02T10:01:03.987Z,24.7
2023-01-02T10:02:04.386Z,24.7
2023-01-02T10:03:07.900Z,24.7
2023-01-02T10:04:04.048Z,24.7
2023-01-02T10:05:04.067Z,24.7
2023-01-02T10:06:04.007Z,24.6
2023-01-02T10:07:03.992Z,24.6
2023-01-02T10:08:04.021Z,24.6
2023-01-02T10:09:04.014Z,24.6
2023-01-02T10:10:04.022Z,24.6
2023-01-02T10:11:03.985Z,24.6
2023-01-02T10:12:04.080Z,24.6
2023-01-02T10:13:03.990Z,24.7
2023-01-02T10:14:20.560Z,24.7
2023-01-02T10:15:04.056Z,24.6
2023-01-02T10:16:04.026Z,24.7
2023-01-02T10:17:10.753Z,24.6
2023-01-02T10:18:11.271Z,24.6
2023-01-02T10:19:03.991Z,24.7
2023-01-02T10:20:04.002Z,24.7
2023-01-02T10:21:04.025Z,24.7
2023-01-02T10:22:04.039Z,24.8
2023-01-02T10:23:03.968Z,24.7
2023-01-02T10:24:04.056Z,24.7
2023-01-02T10:25:03.976Z,24.8
2023-01-02T10:26:04.049Z,24.8
2023-01-02T10:27:03.998Z,24.8
2023-01-02T10:28:03.998Z,24.8
2023-01-02T10:29:04.029Z,24.8
2023-01-02T10:30:04.007Z,24.8
2023-01-02T10:31:07.225Z,24.8
2023-01-02T10:32:04.007Z,24.8
2023-01-02T10:33:04.026Z,24.8
2023-01-02T10:34:04.017Z,24.8
2023-01-02T10:35:04.071Z,24.8
2023-01-02T10:36:04.013Z,24.8
2023-01-02T10:37:07.962Z,24.8
2023-01-02T10:38:03.994Z,24.8
2023-01-02T10:39:03.966Z,24.8
2023-01-02T10:40:04.013Z,24.8
2023-01-02T10:41:04.054Z,24.8
2023-01-02T10:42:04.023Z,24.8
2023-01-02T10:43:03.988Z,24.8
2023-01-02T10:44:04.026Z,24.8
2023-01-02T10:45:04.083Z,24.8
2023-01-02T10:46:04.011Z,24.8
2023-01-02T10:47:04.109Z,24.8
2023-01-02T10:48:04.050Z,24.8
2023-01-02T10:49:04.158Z,24.8
2023-01-02T10:50:04.004Z,24.8
2023-01-02T10:51:03.983Z,24.8
2023-01-02T10:52:04.261Z,24.8
2023-01-02T10:53:04.025Z,24.8
2023-01-02T10:54:04.072Z,24.8
2023-01-02T10:55:03.970Z,24.8
2023-01-02T10:56:04.037Z,24.8
2023-01-02T10:57:03.992Z,24.8
2023-01-02T10:58:04.011Z,24.8
2023-01-02T10:59:04.025Z,24.8
2023-01-02T11:00:04.005Z,24.8
2023-01-02T11:01:04.037Z,24.8
2023-01-02T11:02:04.083Z,24.7
2023-01-02T11:03:04.023Z,24.7
2023-01-02T11:04:04.019Z,24.7
2023-01-02T11:05:04.035Z,24.7
2023-01-02T11:06:25.703Z,24.7
2023-01-02T11:07:03.992Z,24.7
2023-01-02T11:08:04.037Z,24.7
2023-01-02T11:09:03.991Z,24.7
2023-01-02T11:10:04.008Z,24.8
2023-01-02T11:11:04.051Z,24.8
2023-01-02T11:12:04.031Z,24.8
2023-01-02T11:13:04.002Z,24.8
2023-01-02T11:14:04.019Z,24.8
2023-01-02T11:15:03.979Z,24.8
2023-01-02T11:16:04.075Z,24.8
2023-01-02T11:17:04.021Z,24.8
2023-01-02T11:18:04.005Z,24.8
2023-01-02T11:19:03.985Z,24.8
2023-01-02T11:20:04.012Z,24.8
2023-01-02T11:21:04.113Z,24.8
2023-01-02T11:22:04.016Z,24.8
2023-01-02T11:23:04.035Z,24.8
2023-01-02T11:24:04.055Z,24.8
2023-01-02T11:25:03.999Z,24.8
2023-01-02T11:26:04.044Z,24.8
2023-01-02T11:27:03.996Z,24.8
2023-01-02T11:28:04.028Z,24.8
2023-01-02T11:29:49.348Z,24.8
2023-01-02T11:30:04.044Z,24.7
2023-01-02T11:31:04.345Z,24.8
2023-01-02T11:32:04.143Z,24.8
2023-01-02T11:33:04.047Z,24.8
2023-01-02T11:34:04.024Z,24.8
2023-01-02T11:35:04.042Z,24.8
2023-01-02T11:36:04.047Z,24.8
2023-01-02T11:37:03.989Z,24.8
2023-01-02T11:38:04.037Z,24.8
2023-01-02T11:39:04.330Z,24.8
2023-01-02T11:40:04.050Z,24.8
2023-01-02T11:41:04.041Z,24.8
2023-01-02T11:42:04.031Z,24.8
2023-01-02T11:43:04.014Z,24.8
2023-01-02T11:44:04.074Z,24.8
2023-01-02T11:45:04.136Z,24.8
2023-01-02T11:46:04.415Z,24.8
2023-01-02T11:47:04.181Z,24.8
2023-01-02T11:48:04.101Z,24.8
2023-01-02T11:49:04.003Z,24.8
2023-01-02T11:50:04.030Z,24.8
2023-01-02T11:51:04.038Z,24.8
2023-01-02T11:52:04.035Z,24.7
2023-01-02T11:53:04.029Z,24.7
2023-01-02T11:54:04.125Z,24.7
2023-01-02T11:55:04.139Z,24.7
2023-01-02T11:56:04.075Z,24.7
2023-01-02T11:57:04.122Z,24.7
2023-01-02T11:58:04.380Z,24.7
2023-01-02T11:59:04.087Z,24.7
2023-01-02T12:00:04.234Z,24.7
2023-01-02T12:01:04.143Z,24.7
2023-01-02T12:02:04.223Z,24.7
2023-01-02T12:03:04.197Z,24.7
2023-01-02T12:04:04.097Z,24.7
2023-01-02T12:05:04.091Z,24.7
2023-01-02T12:06:04.136Z,24.7
2023-01-02T12:07:04.025Z,24.7
2023-01-02T12:08:04.034Z,24.7
2023-01-02T12:09:04.084Z,24.7
2023-01-02T12:10:04.037Z,24.7
2023-01-02T12:11:04.107Z,24.7
2023-01-02T12:12:04.063Z,24.7
2023-01-02T12:13:04.091Z,24.7
2023-01-02T12:14:04.039Z,24.6
2023-01-02T12:15:04.009Z,24.6
2023-01-02T12:16:04.044Z,24.6
2023-01-02T12:17:04.047Z,24.6
2023-01-02T12:18:04.031Z,24.5
2023-01-02T12:19:04.020Z,24.5
2023-01-02T12:20:05.957Z,24.5
2023-01-02T12:21:04.175Z,24.4
2023-01-02T12:22:04.058Z,24.4
2023-01-02T12:23:04.107Z,24.4
2023-01-02T12:24:04.051Z,24.4
2023-01-02T12:25:42.448Z,24.5
2023-01-02T12:26:56.207Z,24.3
2023-01-02T12:27:04.617Z,24.3
2023-01-02T12:28:03.919Z,24.5
2023-01-02T12:29:03.963Z,24.5
2023-01-02T12:30:05.054Z,24.6
2023-01-02T12:31:03.988Z,24.6
2023-01-02T12:32:06.529Z,24.6
2023-01-02T12:33:03.947Z,24.6
2023-01-02T12:34:03.935Z,24.6
2023-01-02T12:35:03.994Z,24.6
2023-01-02T12:36:03.993Z,24.7
2023-01-02T12:37:03.972Z,24.7
2023-01-02T12:38:03.978Z,24.7
2023-01-02T12:39:04.268Z,24.7
2023-01-02T12:40:04.039Z,24.7
2023-01-02T12:41:04.117Z,24.8
2023-01-02T12:42:04.024Z,24.8
2023-01-02T12:43:04.331Z,24.8
2023-01-02T12:44:04.341Z,24.8
2023-01-02T12:45:04.475Z,24.8
2023-01-02T12:46:04.384Z,24.8
2023-01-02T12:47:05.381Z,24.8
2023-01-02T12:48:04.372Z,24.8
2023-01-02T12:49:04.876Z,24.8
2023-01-02T12:50:04.085Z,24.8
2023-01-02T12:51:03.995Z,24.8
2023-01-02T12:52:04.014Z,24.8
2023-01-02T12:53:04.078Z,24.8
2023-01-02T12:54:18.652Z,24.8
2023-01-02T12:55:04.329Z,24.7
2023-01-02T12:56:03.951Z,24.7
2023-01-02T12:57:06.706Z,24.7
2023-01-02T12:58:03.954Z,24.7
2023-01-02T12:59:04.072Z,24.7
2023-01-02T13:00:03.951Z,24.7
2023-01-02T13:01:04.044Z,24.7
2023-01-02T13:02:04.203Z,24.6
2023-01-02T13:03:04.049Z,24.6
2023-01-02T13:04:04.105Z,24.6
2023-01-02T13:05:04.018Z,24.6
2023-01-02T13:06:03.940Z,24.5
2023-01-02T13:07:04.031Z,24.5
2023-01-02T13:08:03.953Z,24.5
2023-01-02T13:09:03.967Z,24.5
2023-01-02T13:10:03.948Z,24.5
2023-01-02T13:11:03.991Z,24.4
2023-01-02T13:12:03.951Z,24.4
2023-01-02T13:13:03.973Z,24.4
2023-01-02T13:14:03.945Z,24.4
2023-01-02T13:15:03.997Z,24.4
2023-01-02T13:16:06.255Z,24.3
2023-01-02T13:17:04.071Z,24.3
2023-01-02T13:18:03.959Z,24.3
2023-01-02T13:19:04.085Z,24.3
2023-01-02T13:20:03.954Z,24.3